Time;durP1;ratioP1;P1;durP2;ratioP2;P2;SDS_P1;SDS_P2;PMS_P1;PMS_P2;Temp;Humidity;BMP_temperature;BMP_pressure;BME280_temperature;BME280_humidity;BME280_pressure;Samples;Min_cycle;Max_cycle;Signal;HPM_P1;HPM_P2
2022/02/15 00:01:20;;;;;;;61.03;41.08;;;;;;;2.70;100.00;100861.06;5012973;28;20026;-66
2022/02/15 00:03:45;;;;;;;53.88;35.15;;;;;;;3.57;100.00;100906.03;5012620;28;20113;-66
2022/02/15 00:06:11;;;;;;;46.20;31.48;;;;;;;3.68;100.00;100904.53;5012457;28;20018;-65
2022/02/15 00:08:36;;;;;;;37.70;27.42;;;;;;;3.20;100.00;100860.25;5012479;28;20018;-66
2022/02/15 00:11:01;;;;;;;38.80;26.73;;;;;;;3.08;100.00;100855.03;5012400;28;20116;-66
2022/02/15 00:13:27;;;;;;;42.30;29.58;;;;;;;2.47;100.00;100839.75;5012464;28;20021;-65
2022/02/15 00:15:52;;;;;;;40.38;28.25;;;;;;;3.25;100.00;100881.25;5012475;28;20026;-66
2022/02/15 00:18:17;;;;;;;46.47;30.30;;;;;;;3.19;100.00;100853.53;5012405;28;20462;-66
2022/02/15 00:20:46;;;;;;;46.90;29.83;;;;;;;2.78;100.00;100849.50;5012302;28;20037;-66
2022/02/15 00:23:12;;;;;;;39.50;27.45;;;;;;;2.95;100.00;100875.72;5012414;28;20026;-66
2022/02/15 00:25:37;;;;;;;51.00;29.83;;;;;;;2.85;100.00;100891.47;5012048;28;20029;-66
2022/02/15 00:28:03;;;;;;;53.35;29.63;;;;;;;3.06;100.00;100885.97;5011079;28;20049;-66
2022/02/15 00:30:29;;;;;;;47.10;27.92;;;;;;;3.21;100.00;100897.09;5012261;28;20037;-66
2022/02/15 00:32:54;;;;;;;44.47;29.45;;;;;;;2.55;100.00;100885.91;5012175;28;20051;-65
2022/02/15 00:35:20;;;;;;;49.55;29.38;;;;;;;2.58;100.00;100813.16;5012409;28;20029;-66
2022/02/15 00:37:46;;;;;;;40.25;26.33;;;;;;;3.17;100.00;100885.31;5027271;28;20038;-66
2022/02/15 00:40:12;;;;;;;51.13;30.08;;;;;;;2.76;100.00;100857.81;5011944;28;20129;-66
2022/02/15 00:42:39;;;;;;;42.55;27.63;;;;;;;3.01;100.00;100890.06;5011891;28;20026;-66
2022/02/15 00:45:07;;;;;;;88.63;44.22;;;;;;;2.84;100.00;100874.72;5010777;28;20080;-66
2022/02/15 00:47:32;;;;;;;64.07;38.45;;;;;;;2.64;100.00;100876.88;5012005;28;20113;-67
2022/02/15 00:49:58;;;;;;;47.13;30.85;;;;;;;2.83;100.00;100880.56;5011669;28;20161;-66
2022/02/15 00:52:24;;;;;;;48.60;30.70;;;;;;;2.69;100.00;100889.50;5012147;28;20026;-67
2022/02/15 00:54:49;;;;;;;46.30;28.92;;;;;;;2.43;100.00;100870.59;5011583;28;20030;-66
2022/02/15 00:57:16;;;;;;;37.83;25.98;;;;;;;2.37;100.00;100838.72;5011529;28;20317;-66
2022/02/15 00:59:42;;;;;;;31.98;23.08;;;;;;;2.06;100.00;100848.13;5011866;28;20511;-67
2022/02/15 01:02:08;;;;;;;36.75;24.45;;;;;;;2.29;100.00;100872.84;4583762;22;10001711;-70
2022/02/15 01:04:33;;;;;;;39.75;24.42;;;;;;;2.45;100.00;100858.94;4996545;28;20065;-69
2022/02/15 01:06:59;;;;;;;36.33;24.65;;;;;;;1.95;100.00;100864.59;4992723;28;20027;-70
2022/02/15 01:09:24;;;;;;;39.53;26.58;;;;;;;2.58;100.00;100873.38;4992914;28;20072;-70
2022/02/15 01:11:49;;;;;;;37.75;24.85;;;;;;;2.43;100.00;100865.59;4992632;28;20109;-68
2022/02/15 01:14:15;;;;;;;43.63;27.75;;;;;;;1.82;100.00;100840.13;4992464;28;20030;-70
2022/02/15 01:16:41;;;;;;;37.80;24.30;;;;;;;1.77;100.00;100825.81;4992591;28;20393;-70
2022/02/15 01:19:06;;;;;;;34.50;23.00;;;;;;;2.08;100.00;100859.88;4978832;28;20046;-69
2022/02/15 01:21:32;;;;;;;38.30;24.75;;;;;;;2.18;100.00;100818.28;4992095;28;20060;-70
2022/02/15 01:23:57;;;;;;;31.98;23.10;;;;;;;2.25;100.00;100815.06;4992437;28;20069;-70
2022/02/15 01:26:22;;;;;;;34.10;22.95;;;;;;;1.41;100.00;100817.50;4991912;28;20033;-70
2022/02/15 01:28:48;;;;;;;33.42;22.73;;;;;;;1.99;100.00;100828.75;4990959;28;20121;-70
2022/02/15 01:31:13;;;;;;;35.97;24.15;;;;;;;1.59;100.00;100853.00;4992230;28;20113;-70
2022/02/15 01:33:39;;;;;;;36.63;24.85;;;;;;;0.97;100.00;100815.63;4992223;28;20112;-69
2022/02/15 01:36:04;;;;;;;39.28;24.90;;;;;;;1.62;100.00;100845.53;4991992;28;20029;-70
2022/02/15 01:38:30;;;;;;;39.85;24.85;;;;;;;1.79;100.00;100815.81;4973127;28;20109;-71
2022/02/15 01:40:55;;;;;;;39.45;24.75;;;;;;;1.25;100.00;100819.66;4988060;28;20058;-71
2022/02/15 01:43:21;;;;;;;40.58;24.63;;;;;;;1.23;100.00;100814.59;4987972;28;20035;-70
2022/02/15 01:45:47;;;;;;;35.88;24.08;;;;;;;1.76;100.00;100810.75;4972566;28;20037;-70
2022/02/15 01:48:12;;;;;;;33.55;22.90;;;;;;;1.68;100.00;100805.56;4980341;28;20477;-71
2022/02/15 01:50:38;;;;;;;33.95;22.45;;;;;;;1.64;100.00;100838.06;4990532;28;20026;-70
2022/02/15 01:53:03;;;;;;;34.65;21.58;;;;;;;1.41;100.00;100845.06;4992390;28;20031;-70
2022/02/15 01:55:29;;;;;;;33.95;21.60;;;;;;;1.26;100.00;100774.63;4992321;28;20089;-70
2022/02/15 01:57:54;;;;;;;34.45;21.75;;;;;;;2.02;100.00;100832.16;4990578;28;20057;-70
2022/02/15 02:00:20;;;;;;;35.63;22.83;;;;;;;1.68;100.00;100848.16;4992461;28;20026;-71
2022/02/15 02:02:47;;;;;;;36.53;23.20;;;;;;;1.24;100.00;100807.94;4992183;28;20054;-71
2022/02/15 02:07:58;;;;;;;32.72;22.15;;;;;;;1.78;100.00;100794.09;4992413;28;20096;-70
2022/02/15 02:10:23;;;;;;;35.15;23.60;;;;;;;1.09;100.00;100815.94;4991005;28;20064;-70
2022/02/15 02:12:49;;;;;;;33.72;21.92;;;;;;;1.28;100.00;100799.69;4991119;28;20050;-71
2022/02/15 02:15:17;;;;;;;36.67;23.85;;;;;;;1.41;100.00;100842.56;4988290;28;20049;-71
2022/02/15 02:17:43;;;;;;;37.05;24.25;;;;;;;1.45;100.00;100810.91;4979932;28;20092;-70
2022/02/15 02:20:09;;;;;;;38.75;24.48;;;;;;;1.19;100.00;100854.56;4992027;28;20448;-71
2022/02/15 02:22:35;;;;;;;38.45;23.13;;;;;;;1.38;100.00;100831.63;4992016;28;20037;-70
2022/02/15 02:25:00;;;;;;;38.58;24.98;;;;;;;1.56;100.00;100819.50;4991640;28;20022;-70
2022/02/15 02:27:29;;;;;;;37.28;23.08;;;;;;;1.29;100.00;100829.75;4972411;28;20042;-70
2022/02/15 02:29:55;;;;;;;36.70;23.58;;;;;;;0.96;100.00;100793.06;4972096;28;20483;-69
2022/02/15 02:32:22;;;;;;;31.90;21.58;;;;;;;1.31;100.00;100828.13;4987246;28;20031;-70
2022/02/15 02:34:49;;;;;;;33.42;22.83;;;;;;;1.51;100.00;100849.47;4971867;28;20026;-70
2022/02/15 02:37:14;;;;;;;35.22;22.38;;;;;;;1.24;100.00;100856.34;4986948;28;20031;-70
2022/02/15 02:39:43;;;;;;;33.35;21.67;;;;;;;1.09;100.00;100857.66;4995063;28;20041;-70
2022/02/15 02:42:09;;;;;;;29.70;22.13;;;;;;;0.85;100.00;100865.41;4991699;28;20476;-70
2022/02/15 02:44:35;;;;;;;30.35;21.13;;;;;;;1.24;100.00;100833.81;4982913;28;20030;-68
2022/02/15 02:47:00;;;;;;;30.55;21.17;;;;;;;1.56;100.00;100835.41;4971928;28;20062;-70
2022/02/15 02:49:25;;;;;;;34.50;22.58;;;;;;;1.57;100.00;100873.81;4971469;28;20042;-68
2022/02/15 02:51:51;;;;;;;33.80;23.00;;;;;;;0.82;100.00;100818.63;4986556;28;20086;-71
2022/02/15 02:54:16;;;;;;;31.98;22.90;;;;;;;1.35;100.00;100882.47;4992095;28;20027;-71
2022/02/15 02:56:42;;;;;;;33.30;21.20;;;;;;;1.70;100.00;100881.63;4992588;28;20034;-71
2022/02/15 02:59:07;;;;;;;44.05;30.20;;;;;;;0.93;100.00;100843.94;4995264;28;20542;-71
2022/02/15 03:01:33;;;;;;;49.45;33.05;;;;;;;1.51;100.00;100872.00;4995047;28;20045;-72
2022/02/15 03:03:58;;;;;;;50.00;30.08;;;;;;;1.20;100.00;100889.66;4995627;28;20069;-72
2022/02/15 03:06:26;;;;;;;56.08;29.38;;;;;;;1.08;100.00;100889.34;4995727;28;20117;-72
2022/02/15 03:08:51;;;;;;;42.50;25.75;;;;;;;0.68;100.00;100879.97;4996140;28;20039;-73
2022/02/15 03:11:17;;;;;;;53.05;32.60;;;;;;;1.03;100.00;100890.03;4995350;28;20034;-73
2022/02/15 03:13:42;;;;;;;300.30;124.53;;;;;;;0.87;100.00;100876.31;5002357;28;20121;-70
2022/02/15 03:16:08;;;;;;;229.05;98.75;;;;;;;0.62;100.00;100899.81;4991104;28;20030;-71
2022/02/15 03:18:34;;;;;;;153.52;70.93;;;;;;;0.71;100.00;100905.06;4975899;28;20023;-71
2022/02/15 03:20:59;;;;;;;97.72;48.38;;;;;;;0.91;100.00;100880.56;4975635;28;20038;-71
2022/02/15 03:23:25;;;;;;;97.15;47.40;;;;;;;0.55;100.00;100872.97;4975861;28;20105;-72
2022/02/15 03:25:50;;;;;;;120.75;56.50;;;;;;;0.69;100.00;100894.16;4975621;28;20409;-72
2022/02/15 03:28:16;;;;;;;74.93;40.20;;;;;;;0.22;100.00;100878.72;4990596;28;20031;-72
2022/02/15 03:30:42;;;;;;;52.92;31.10;;;;;;;0.76;100.00;100882.66;4975312;28;20081;-72
2022/02/15 03:33:07;;;;;;;38.38;25.10;;;;;;;0.84;100.00;100883.72;4990859;28;20034;-72
2022/02/15 03:35:33;;;;;;;34.42;23.92;;;;;;;0.45;100.00;100857.66;4975531;28;20034;-73
2022/02/15 03:37:58;;;;;;;31.90;22.23;;;;;;;0.87;100.00;100896.31;4975553;28;20500;-73
2022/02/15 03:43:04;;;;;;;32.40;22.35;;;;;;;0.71;100.00;100902.56;4977495;28;20569;-73
2022/02/15 03:43:10;;;;;;;34.60;22.38;;;;;;;0.49;100.00;100854.44;4980487;28;20034;-70
2022/02/15 03:45:36;;;;;;;34.42;22.98;;;;;;;-0.23;100.00;100836.63;4992848;28;20045;-70
2022/02/15 03:48:02;;;;;;;33.92;21.60;;;;;;;0.50;100.00;100864.47;4990530;28;20416;-70
2022/02/15 03:50:28;;;;;;;36.78;22.60;;;;;;;0.74;100.00;100886.78;4990302;28;20034;-70
2022/02/15 03:52:53;;;;;;;31.48;22.30;;;;;;;0.88;100.00;100875.47;4994742;28;20042;-70
2022/02/15 03:55:19;;;;;;;35.50;21.92;;;;;;;0.29;100.00;100845.56;4993133;28;20100;-70
2022/02/15 03:57:45;;;;;;;35.88;21.83;;;;;;;0.49;100.00;100844.44;4976417;28;20038;-70
2022/02/15 04:00:11;;;;;;;35.38;22.67;;;;;;;-0.07;100.00;100855.38;4986626;28;20033;-71
2022/02/15 04:02:37;;;;;;;31.90;21.98;;;;;;;0.45;100.00;100850.16;4992903;28;20079;-70
2022/02/15 04:05:02;;;;;;;35.78;22.88;;;;;;;0.77;100.00;100881.88;4986073;28;20039;-70
2022/02/15 04:07:28;;;;;;;39.03;23.13;;;;;;;0.75;100.00;100881.00;4993330;28;20046;-70
2022/02/15 04:09:53;;;;;;;34.00;23.80;;;;;;;0.65;100.00;100884.06;4983029;28;20038;-71
2022/02/15 04:12:19;;;;;;;33.80;23.30;;;;;;;0.69;100.00;100838.31;4991562;28;20030;-71
2022/02/15 04:14:44;;;;;;;38.05;24.80;;;;;;;0.71;100.00;100887.53;4993599;28;20034;-70
2022/02/15 04:17:10;;;;;;;38.75;26.38;;;;;;;0.24;100.00;100884.59;4983303;28;20125;-71
2022/02/15 04:19:35;;;;;;;39.20;27.27;;;;;;;0.38;100.00;100870.78;4975656;28;20114;-70
2022/02/15 04:22:01;;;;;;;40.45;27.02;;;;;;;0.21;100.00;100840.38;4988993;28;20125;-66
2022/02/15 04:24:26;;;;;;;42.40;28.00;;;;;;;0.44;100.00;100851.81;4991161;28;20034;-71
2022/02/15 04:26:52;;;;;;;39.08;25.67;;;;;;;0.62;100.00;100893.97;4992613;28;20472;-71
2022/02/15 04:29:17;;;;;;;35.75;24.98;;;;;;;0.67;100.00;100904.97;4978869;28;20049;-72
2022/02/15 04:31:44;;;;;;;42.35;26.85;;;;;;;0.57;100.00;100866.34;4981237;28;20041;-72
2022/02/15 04:34:09;;;;;;;49.13;29.08;;;;;;;0.10;100.00;100845.88;4974122;28;20077;-72
2022/02/15 04:36:35;;;;;;;40.58;25.52;;;;;;;0.64;100.00;100920.72;4983516;28;20038;-71
2022/02/15 04:39:00;;;;;;;53.80;29.73;;;;;;;0.41;100.00;100913.41;4986367;28;20113;-71
2022/02/15 04:41:26;;;;;;;51.25;28.58;;;;;;;0.28;100.00;100879.72;5000111;28;20054;-72
2022/02/15 04:43:51;;;;;;;43.67;28.23;;;;;;;0.17;100.00;100916.06;4975695;28;20035;-71
2022/02/15 04:46:18;;;;;;;40.90;27.88;;;;;;;-0.26;100.00;100913.94;4976011;28;20031;-70
2022/02/15 04:48:43;;;;;;;42.75;27.00;;;;;;;0.41;100.00;100901.75;4987281;28;20061;-70
2022/02/15 04:51:10;;;;;;;45.88;28.98;;;;;;;-0.03;100.00;100919.63;4999815;28;20060;-69
2022/02/15 04:53:35;;;;;;;52.25;30.75;;;;;;;0.38;100.00;100925.81;4972081;28;20475;-69
2022/02/15 04:56:02;;;;;;;48.85;31.63;;;;;;;-0.19;100.00;100914.97;4971938;28;20027;-69
2022/02/15 04:58:29;;;;;;;48.90;30.10;;;;;;;-0.35;100.00;100907.81;4973534;28;20027;-71
2022/02/15 05:00:54;;;;;;;43.42;27.27;;;;;;;-0.08;100.00;100917.00;5007833;28;20053;-72
2022/02/15 05:03:20;;;;;;;50.30;32.05;;;;;;;0.18;100.00;100946.91;4992976;28;20054;-71
2022/02/15 05:05:45;;;;;;;52.78;32.80;;;;;;;0.11;100.00;100940.03;4983896;28;20028;-70
2022/02/15 05:08:11;;;;;;;49.00;31.27;;;;;;;0.43;100.00;100935.16;4984200;28;20164;-69
2022/02/15 05:10:38;;;;;;;54.97;34.75;;;;;;;-0.18;100.00;100942.50;4982035;28;20427;-71
2022/02/15 05:13:08;;;;;;;55.28;34.28;;;;;;;-0.22;100.00;100948.19;4985224;28;20053;-66
2022/02/15 05:15:33;;;;;;;54.80;34.65;;;;;;;0.14;100.00;100945.13;4992148;28;20023;-66
2022/02/15 05:17:59;;;;;;;59.35;35.20;;;;;;;0.21;100.00;100919.50;4991869;28;20037;-70
2022/02/15 05:20:24;;;;;;;66.95;36.45;;;;;;;0.33;100.00;100917.34;4976599;28;20038;-68
2022/02/15 05:22:51;;;;;;;66.65;40.05;;;;;;;0.31;100.00;100961.44;4972372;28;20544;-68
2022/02/15 05:25:17;;;;;;;75.40;43.28;;;;;;;0.21;100.00;100932.84;4972328;28;20057;-69
2022/02/15 05:27:42;;;;;;;99.05;53.70;;;;;;;-0.17;100.00;100925.88;4972063;28;20058;-69
2022/02/15 05:30:09;;;;;;;90.05;50.08;;;;;;;0.37;100.00;100959.13;4975948;28;20039;-68
2022/02/15 05:32:34;;;;;;;92.07;49.70;;;;;;;0.09;100.00;100949.13;4971900;28;20622;-64
2022/02/15 05:35:00;;;;;;;92.15;54.72;;;;;;;0.23;100.00;100945.38;4970875;28;20181;-68
2022/02/15 05:37:25;;;;;;;100.25;63.55;;;;;;;0.24;100.00;100940.41;4972142;28;20496;-69
2022/02/15 05:39:51;;;;;;;94.38;59.97;;;;;;;0.52;100.00;100977.91;4970714;28;20394;-67
2022/02/15 05:42:16;;;;;;;108.38;76.65;;;;;;;0.69;100.00;100993.41;4976764;28;20420;-68
2022/02/15 05:44:42;;;;;;;67.28;43.58;;;;;;;2.73;100.00;100965.72;4991108;28;20424;-68
2022/02/15 05:47:07;;;;;;;62.90;41.05;;;;;;;-0.09;100.00;100936.94;5005615;28;20031;-68
2022/02/15 05:50:49;;;;;;;57.92;35.83;;;;;;;0.09;100.00;101002.47;4981875;28;20485;-68
2022/02/15 05:52:18;;;;;;;51.97;32.25;;;;;;;0.21;100.00;100937.84;4990823;28;20026;-69
2022/02/15 05:54:44;;;;;;;69.00;41.78;;;;;;;2.04;100.00;100960.09;4990491;28;20080;-69
2022/02/15 05:57:09;;;;;;;85.75;50.30;;;;;;;1.02;100.00;100974.28;4990305;28;20140;-69
2022/02/15 05:59:34;;;;;;;105.95;58.67;;;;;;;2.26;100.00;100982.28;4991635;28;20416;-69
2022/02/15 06:02:01;;;;;;;60.40;37.00;;;;;;;2.45;100.00;101010.31;4972466;28;20457;-69
2022/02/15 06:04:27;;;;;;;59.95;40.47;;;;;;;2.80;100.00;100950.78;4971292;28;20039;-68
2022/02/15 06:06:52;;;;;;;139.55;85.45;;;;;;;3.22;100.00;100971.66;4980326;28;20128;-67
2022/02/15 06:09:17;;;;;;;81.90;49.38;;;;;;;3.14;100.00;100970.69;4971496;28;20031;-69
2022/02/15 06:11:43;;;;;;;90.32;54.60;;;;;;;2.91;100.00;100971.09;4971287;28;20034;-67
2022/02/15 06:14:08;;;;;;;62.25;46.10;;;;;;;2.94;100.00;100988.69;4971268;28;20049;-67
2022/02/15 06:16:35;;;;;;;60.42;39.78;;;;;;;3.47;100.00;100958.69;4970889;28;20125;-67
2022/02/15 06:19:00;;;;;;;130.52;77.68;;;;;;;3.88;100.00;100963.53;4971056;28;20471;-68
2022/02/15 06:21:26;;;;;;;154.57;82.10;;;;;;;4.22;100.00;101000.88;4981000;28;20030;-68
2022/02/15 06:23:52;;;;;;;92.45;58.80;;;;;;;3.76;100.00;100954.13;4971762;28;20046;-68
2022/02/15 06:26:17;;;;;;;77.65;51.38;;;;;;;4.58;100.00;101003.06;4971449;28;20062;-69
2022/02/15 06:28:43;;;;;;;84.97;58.65;;;;;;;5.02;100.00;100937.25;4971764;28;20424;-67
2022/02/15 06:31:09;;;;;;;114.65;72.43;;;;;;;5.37;100.00;100999.75;4991986;28;20031;-67
2022/02/15 06:33:35;;;;;;;117.78;74.10;;;;;;;5.35;100.00;100963.63;4994862;28;20143;-71
2022/02/15 06:36:04;;;;;;;109.68;74.97;;;;;;;5.97;100.00;100917.88;4994789;28;20485;-70
2022/02/15 06:38:29;;;;;;;99.90;70.53;;;;;;;6.29;100.00;100947.47;4994691;28;20030;-68
2022/02/15 06:40:55;;;;;;;105.47;75.18;;;;;;;6.30;100.00;100969.38;4994619;28;20122;-70
2022/02/15 06:43:20;;;;;;;95.57;67.60;;;;;;;6.55;100.00;100939.19;4994978;28;20030;-67
2022/02/15 06:45:46;;;;;;;79.57;54.50;;;;;;;6.48;100.00;100934.09;4995040;28;20118;-68
2022/02/15 06:48:11;;;;;;;73.70;48.28;;;;;;;6.64;100.00;100956.03;4994526;28;20026;-67
2022/02/15 06:50:38;;;;;;;56.53;40.03;;;;;;;6.75;100.00;100960.31;4993199;28;20027;-67
2022/02/15 06:53:03;;;;;;;66.25;48.00;;;;;;;7.10;100.00;100979.75;4994917;28;20038;-68
2022/02/15 06:55:29;;;;;;;68.35;48.13;;;;;;;6.40;100.00;100974.47;4994234;28;20053;-67
2022/02/15 06:57:54;;;;;;;68.38;48.55;;;;;;;5.32;100.00;100978.69;4993427;28;20477;-69
2022/02/15 07:00:20;;;;;;;82.18;59.55;;;;;;;4.81;100.00;100987.44;4994692;28;20045;-69
2022/02/15 07:02:45;;;;;;;79.50;59.47;;;;;;;4.43;100.00;100975.19;4994803;28;20150;-69
2022/02/15 07:05:11;;;;;;;82.93;57.13;;;;;;;4.53;100.00;100952.66;4987400;28;20154;-69
2022/02/15 07:07:36;;;;;;;62.95;46.30;;;;;;;4.75;100.00;100951.25;4990338;28;20477;-68
2022/02/15 07:10:05;;;;;;;67.70;49.75;;;;;;;5.35;100.00;100984.59;4974442;28;20061;-68
2022/02/15 07:12:31;;;;;;;69.63;49.70;;;;;;;5.56;100.00;100974.72;4988975;28;20153;-69
2022/02/15 07:14:56;;;;;;;59.80;40.83;;;;;;;5.24;100.00;100929.06;4974986;28;20027;-69
2022/02/15 07:17:24;;;;;;;62.60;44.55;;;;;;;5.60;100.00;100984.00;4974740;28;20452;-69
2022/02/15 07:19:49;;;;;;;62.95;45.55;;;;;;;5.81;100.00;100942.94;4974582;28;20401;-69
2022/02/15 07:22:15;;;;;;;63.53;44.70;;;;;;;5.39;100.00;100978.75;4975223;28;20037;-69
2022/02/15 07:24:41;;;;;;;47.92;33.08;;;;;;;5.86;100.00;100959.00;4974572;28;20458;-69
2022/02/15 07:27:06;;;;;;;46.70;31.73;;;;;;;6.19;100.00;100974.34;4989645;28;20031;-69
2022/02/15 07:29:32;;;;;;;40.63;29.70;;;;;;;5.91;100.00;100927.91;4974594;28;20034;-68
2022/02/15 07:31:57;;;;;;;39.00;29.38;;;;;;;5.75;100.00;100945.44;4974480;28;20030;-69
2022/02/15 07:34:22;;;;;;;41.15;26.58;;;;;;;6.22;100.00;100943.25;4974592;28;20023;-69
2022/02/15 07:36:50;;;;;;;37.65;24.60;;;;;;;6.29;100.00;100937.38;4974442;28;20114;-68
2022/02/15 07:39:15;;;;;;;43.17;27.48;;;;;;;6.14;100.00;100968.41;4987205;28;20042;-68
2022/02/15 07:41:41;;;;;;;39.22;24.52;;;;;;;6.85;100.00;100956.13;4994300;28;20034;-69
2022/02/15 07:44:06;;;;;;;44.97;24.58;;;;;;;6.87;100.00;100956.97;4993098;28;20026;-68
2022/02/15 07:46:32;;;;;;;38.10;23.75;;;;;;;7.14;100.00;100972.19;5008532;28;20412;-68
2022/02/15 07:48:57;;;;;;;30.45;19.02;;;;;;;6.95;100.00;100973.81;4992100;28;20030;-67
2022/02/15 07:51:23;;;;;;;26.70;16.65;;;;;;;7.08;100.00;100948.56;4993463;28;20030;-69
2022/02/15 07:53:48;;;;;;;26.33;17.38;;;;;;;6.14;100.00;100930.56;4993695;28;20030;-69
2022/02/15 07:56:14;;;;;;;26.95;18.80;;;;;;;6.04;100.00;100976.78;4992309;28;20023;-68
2022/02/15 07:58:39;;;;;;;29.30;19.75;;;;;;;6.97;100.00;100981.44;4993743;28;20041;-69
2022/02/15 08:01:05;;;;;;;29.90;20.17;;;;;;;6.86;100.00;100946.00;4993583;28;20108;-71
2022/02/15 08:03:31;;;;;;;31.77;21.10;;;;;;;6.50;100.00;100981.25;4993431;28;20054;-68
2022/02/15 08:05:57;;;;;;;36.40;24.13;;;;;;;5.97;100.00;100962.44;4993250;28;20120;-68
2022/02/15 08:08:23;;;;;;;32.67;23.02;;;;;;;6.48;100.00;100939.97;4993434;28;20117;-69
2022/02/15 08:10:49;;;;;;;31.77;22.80;;;;;;;5.95;100.00;100938.88;4993759;28;20136;-68
2022/02/15 08:13:18;;;;;;;33.03;23.30;;;;;;;6.05;100.00;100950.72;4993318;28;20120;-65
2022/02/15 08:15:45;;;;;;;35.83;25.10;;;;;;;6.43;100.00;100955.97;4993754;28;20030;-69
2022/02/15 08:18:11;;;;;;;36.90;27.75;;;;;;;6.36;100.00;100932.34;5008008;28;20503;-68
2022/02/15 08:20:36;;;;;;;35.03;25.13;;;;;;;6.91;100.00;100944.31;4991422;28;20041;-69
2022/02/15 08:23:03;;;;;;;38.85;27.50;;;;;;;6.58;100.00;100902.97;4993111;28;20027;-68
2022/02/15 08:25:28;;;;;;;36.28;25.85;;;;;;;7.03;100.00;100924.13;4993080;28;20482;-69
2022/02/15 08:27:54;;;;;;;38.17;25.30;;;;;;;6.97;100.00;100956.97;4992947;28;20117;-68
2022/02/15 08:30:20;;;;;;;35.67;25.75;;;;;;;7.33;100.00;100965.50;4993046;28;20035;-68
2022/02/15 08:32:46;;;;;;;46.40;29.40;;;;;;;7.25;100.00;100964.63;4991544;28;20125;-70
2022/02/15 08:35:14;;;;;;;36.95;27.35;;;;;;;7.55;100.00;100954.50;5007744;28;20052;-70
2022/02/15 08:37:39;;;;;;;36.05;25.83;;;;;;;7.22;100.00;100955.34;4992747;28;20497;-68
2022/02/15 08:40:07;;;;;;;48.80;31.45;;;;;;;7.35;100.00;100918.28;4992874;28;20073;-69
2022/02/15 08:42:33;;;;;;;30.75;22.10;;;;;;;6.89;100.00;100935.91;4992700;28;20037;-69
2022/02/15 08:44:59;;;;;;;33.10;23.08;;;;;;;7.00;100.00;100953.63;4992474;28;20057;-68
2022/02/15 08:47:25;;;;;;;37.30;25.70;;;;;;;7.21;100.00;100903.06;4992245;28;20110;-68
2022/02/15 08:49:52;;;;;;;42.00;28.98;;;;;;;7.36;100.00;100963.81;4992696;28;20408;-69
2022/02/15 08:52:29;;;;;;;34.72;22.40;;;;;;;7.54;100.00;100950.31;4992563;28;20030;-72
2022/02/15 08:54:54;;;;;;;30.77;23.08;;;;;;;6.83;100.00;100961.16;4992590;28;20030;-68
2022/02/15 08:57:21;;;;;;;33.20;24.67;;;;;;;8.27;100.00;100962.06;5007344;28;20399;-68
2022/02/15 08:59:46;;;;;;;39.47;26.90;;;;;;;8.38;100.00;100950.19;4992261;28;20034;-68
2022/02/15 09:02:12;;;;;;;33.17;25.05;;;;;;;7.95;100.00;100925.81;4991977;28;20050;-68
2022/02/15 09:04:37;;;;;;;34.75;23.73;;;;;;;7.42;100.00;100925.03;4991027;28;20026;-69
2022/02/15 09:07:04;;;;;;;33.90;24.20;;;;;;;7.78;100.00;100941.00;4991012;28;20026;-69
2022/02/15 09:09:30;;;;;;;32.47;23.02;;;;;;;7.69;100.00;100923.31;4990665;28;20036;-69
2022/02/15 09:11:55;;;;;;;36.28;24.52;;;;;;;8.28;100.00;100935.88;4992225;28;20026;-68
2022/02/15 09:14:21;;;;;;;37.80;28.42;;;;;;;8.42;100.00;100908.78;4991982;28;20412;-68
2022/02/15 09:16:46;;;;;;;36.88;27.75;;;;;;;8.03;100.00;100943.50;4992188;28;20038;-68
2022/02/15 09:19:12;;;;;;;34.97;25.52;;;;;;;7.83;100.00;100910.63;4991838;28;20038;-69
2022/02/15 09:21:39;;;;;;;37.45;25.63;;;;;;;8.22;100.00;100902.91;4992076;28;20037;-69
2022/02/15 09:24:05;;;;;;;39.95;27.85;;;;;;;9.10;100.00;100930.38;4991385;28;20023;-69
2022/02/15 09:26:31;;;;;;;35.92;26.70;;;;;;;8.34;100.00;100907.16;4991639;28;20026;-68
2022/02/15 09:28:56;;;;;;;41.45;28.67;;;;;;;9.37;100.00;100908.19;4990433;28;20033;-68
2022/02/15 09:31:22;;;;;;;44.20;29.60;;;;;;;9.20;100.00;100879.59;4991156;28;20030;-68
2022/02/15 09:33:52;;;;;;;36.20;27.33;;;;;;;9.02;100.00;100882.25;4997146;28;20023;-68
2022/02/15 09:36:19;;;;;;;33.38;24.90;;;;;;;8.70;100.00;100900.22;4991053;28;20116;-69
2022/02/15 09:38:45;;;;;;;33.20;24.95;;;;;;;9.21;100.00;100904.09;4991366;28;20449;-69
2022/02/15 09:41:11;;;;;;;38.70;25.52;;;;;;;8.77;100.00;100879.03;4991575;28;20030;-68
2022/02/15 09:43:37;;;;;;;34.95;24.80;;;;;;;9.52;100.00;100894.53;4986134;28;20485;-68
2022/02/15 09:46:08;;;;;;;34.10;26.08;;;;;;;8.95;100.00;100884.84;4981613;28;20085;-69
2022/02/15 09:48:33;;;;;;;46.53;34.10;;;;;;;9.09;100.00;100871.19;4972122;28;20073;-68
2022/02/15 09:50:59;;;;;;;34.65;24.92;;;;;;;9.09;100.00;100896.56;4972203;28;20066;-69
2022/02/15 09:53:25;;;;;;;31.27;23.30;;;;;;;9.36;100.00;100863.38;4972034;28;20508;-68
2022/02/15 09:55:51;;;;;;;31.92;23.48;;;;;;;9.38;100.00;100883.66;4970613;28;20031;-69
2022/02/15 09:58:16;;;;;;;40.53;26.02;;;;;;;9.75;100.00;100867.22;4971879;28;20039;-67
2022/02/15 10:00:46;;;;;;;33.67;24.30;;;;;;;9.79;100.00;100814.69;4970957;28;20405;-68
2022/02/15 10:03:12;;;;;;;36.63;24.30;;;;;;;10.70;100.00;100867.78;4971870;28;20051;-69
2022/02/15 10:05:38;;;;;;;39.90;26.10;;;;;;;9.84;100.00;100867.16;4981042;28;20037;-69
2022/02/15 10:08:03;;;;;;;33.13;24.85;;;;;;;10.80;100.00;100841.34;4972832;28;20034;-69
2022/02/15 10:10:32;;;;;;;32.72;24.23;;;;;;;9.89;100.00;100862.84;4971476;28;20085;-69
2022/02/15 10:12:58;;;;;;;31.30;22.60;;;;;;;10.62;100.00;100872.16;4971583;28;20034;-70
2022/02/15 10:15:28;;;;;;;42.22;26.88;;;;;;;10.44;100.00;100865.59;4971875;28;20469;-68
2022/02/15 10:18:03;;;;;;;28.50;22.27;;;;;;;10.80;100.00;100828.63;4986683;28;20034;-69
2022/02/15 10:20:29;;;;;;;25.98;20.10;;;;;;;10.19;100.00;100865.06;4970508;28;20031;-69
2022/02/15 10:23:14;;;;;;;31.73;23.35;;;;;;;10.67;100.00;100857.66;4971661;28;20101;-68
2022/02/15 10:25:40;;;;;;;30.98;22.52;;;;;;;10.99;100.00;100830.84;4972126;28;20413;-69
2022/02/15 10:28:30;;;;;;;32.78;22.40;;;;;;;11.43;100.00;100844.56;4986428;28;20034;-69
2022/02/15 10:30:59;;;;;;;34.28;24.35;;;;;;;10.58;100.00;100817.13;4971784;28;20031;-69
2022/02/15 10:33:38;;;;;;;36.70;30.27;;;;;;;11.05;100.00;100829.94;4971499;28;20043;-68
2022/02/15 10:36:05;;;;;;;21.23;17.90;;;;;;;11.20;100.00;100794.06;4974231;28;20034;-69
2022/02/15 10:38:41;;;;;;;24.45;18.70;;;;;;;11.62;100.00;100813.66;4990376;28;20062;-69
2022/02/15 10:41:11;;;;;;;27.77;20.75;;;;;;;10.32;100.00;100795.44;4990233;28;20089;-69
2022/02/15 10:43:47;;;;;;;26.20;20.65;;;;;;;11.58;100.00;100818.81;5005942;28;20027;-68
2022/02/15 10:46:18;;;;;;;24.30;19.88;;;;;;;11.06;100.00;100785.81;4990684;28;20038;-69
2022/02/15 10:48:44;;;;;;;26.90;21.05;;;;;;;11.54;100.00;100812.09;4990478;28;20036;-69
2022/02/15 10:51:10;;;;;;;26.30;20.05;;;;;;;11.41;100.00;100798.75;4990515;28;20039;-70
2022/02/15 10:53:38;;;;;;;25.77;20.92;;;;;;;11.56;100.00;100785.75;4999581;28;20049;-69
2022/02/15 10:56:04;;;;;;;25.95;21.50;;;;;;;11.66;100.00;100801.72;4987072;28;20069;-68
2022/02/15 10:58:31;;;;;;;24.42;19.95;;;;;;;11.07;100.00;100812.94;4979598;28;20492;-68
2022/02/15 11:01:04;;;;;;;29.95;21.83;;;;;;;12.20;100.00;100786.16;4984644;28;20031;-66
2022/02/15 11:03:32;;;;;;;29.55;22.48;;;;;;;12.42;100.00;100783.13;4978185;28;20046;-68
2022/02/15 11:05:59;;;;;;;28.45;21.00;;;;;;;12.94;98.12;100799.72;4972239;28;20102;-68